sensor_id;sensor_type;location;lat;lon;timestamp;temperature;humidity
5334;DHT22;2689;50.954;7.116;2023-03-31T00:01:50;12.20;99.90
5334;DHT22;2689;50.954;7.116;2023-03-31T00:04:17;12.20;99.90
5334;DHT22;2689;50.954;7.116;2023-03-31T00:06:48;12.20;99.90
5334;DHT22;2689;50.954;7.116;2023-03-31T00:12:50;12.30;99.90
5334;DHT22;2689;50.954;7.116;2023-03-31T00:15:16;12.30;99.90
5334;DHT22;2689;50.954;7.116;2023-03-31T00:17:43;12.30;99.90
5334;DHT22;2689;50.954;7.116;2023-03-31T00:20:11;12.30;99.90
5334;DHT22;2689;50.954;7.116;2023-03-31T00:22:39;12.20;99.90
5334;DHT22;2689;50.954;7.116;2023-03-31T00:25:07;12.20;99.90
5334;DHT22;2689;50.954;7.116;2023-03-31T00:27:34;12.20;99.90
5334;DHT22;2689;50.954;7.116;2023-03-31T00:30:02;12.10;99.90
5334;DHT22;2689;50.954;7.116;2023-03-31T00:32:29;12.20;99.90
5334;DHT22;2689;50.954;7.116;2023-03-31T00:34:57;12.20;99.90
5334;DHT22;2689;50.954;7.116;2023-03-31T00:37:26;12.20;99.90
5334;DHT22;2689;50.954;7.116;2023-03-31T00:39:53;12.20;99.90
5334;DHT22;2689;50.954;7.116;2023-03-31T00:42:20;12.10;99.90
5334;DHT22;2689;50.954;7.116;2023-03-31T00:45:23;12.10;99.90
5334;DHT22;2689;50.954;7.116;2023-03-31T00:47:53;12.10;99.90
5334;DHT22;2689;50.954;7.116;2023-03-31T00:50:23;12.10;99.90
5334;DHT22;2689;50.954;7.116;2023-03-31T00:52:53;12.10;99.90
5334;DHT22;2689;50.954;7.116;2023-03-31T00:55:24;12.10;99.90
5334;DHT22;2689;50.954;7.116;2023-03-31T00:57:52;12.10;99.90
5334;DHT22;2689;50.954;7.116;2023-03-31T01:00:19;12.10;99.90
5334;DHT22;2689;50.954;7.116;2023-03-31T01:02:53;12.10;99.90
5334;DHT22;2689;50.954;7.116;2023-03-31T01:05:22;12.10;99.90
5334;DHT22;2689;50.954;7.116;2023-03-31T01:11:15;12.00;99.90
5334;DHT22;2689;50.954;7.116;2023-03-31T01:13:43;11.90;99.90
5334;DHT22;2689;50.954;7.116;2023-03-31T01:16:49;11.90;99.90
5334;DHT22;2689;50.954;7.116;2023-03-31T01:19:23;11.90;99.90
5334;DHT22;2689;50.954;7.116;2023-03-31T01:25:26;11.80;99.90
5334;DHT22;2689;50.954;7.116;2023-03-31T01:28:06;11.80;99.90
5334;DHT22;2689;50.954;7.116;2023-03-31T01:34:10;11.70;99.90
5334;DHT22;2689;50.954;7.116;2023-03-31T01:39:58;11.70;99.90
5334;DHT22;2689;50.954;7.116;2023-03-31T01:42:32;11.70;99.90
5334;DHT22;2689;50.954;7.116;2023-03-31T01:45:06;11.70;99.90
5334;DHT22;2689;50.954;7.116;2023-03-31T01:47:39;11.70;99.90
5334;DHT22;2689;50.954;7.116;2023-03-31T01:50:17;11.70;99.90
5334;DHT22;2689;50.954;7.116;2023-03-31T01:52:47;11.80;99.90
5334;DHT22;2689;50.954;7.116;2023-03-31T01:55:20;11.80;99.90
5334;DHT22;2689;50.954;7.116;2023-03-31T01:57:52;11.80;99.90
5334;DHT22;2689;50.954;7.116;2023-03-31T02:00:25;11.80;99.90
5334;DHT22;2689;50.954;7.116;2023-03-31T02:02:56;11.90;99.90
5334;DHT22;2689;50.954;7.116;2023-03-31T02:05:28;11.80;99.90
5334;DHT22;2689;50.954;7.116;2023-03-31T02:07:58;11.80;99.90
5334;DHT22;2689;50.954;7.116;2023-03-31T02:10:31;11.80;99.90
5334;DHT22;2689;50.954;7.116;2023-03-31T02:12:59;11.80;99.90
5334;DHT22;2689;50.954;7.116;2023-03-31T02:15:33;11.80;99.90
5334;DHT22;2689;50.954;7.116;2023-03-31T02:18:03;11.70;99.90
5334;DHT22;2689;50.954;7.116;2023-03-31T02:20:37;11.70;99.90
5334;DHT22;2689;50.954;7.116;2023-03-31T02:23:07;11.60;99.90
5334;DHT22;2689;50.954;7.116;2023-03-31T02:25:40;11.60;99.90
5334;DHT22;2689;50.954;7.116;2023-03-31T02:28:14;11.60;99.90
5334;DHT22;2689;50.954;7.116;2023-03-31T02:30:47;11.50;99.90
5334;DHT22;2689;50.954;7.116;2023-03-31T02:33:15;11.50;99.90
5334;DHT22;2689;50.954;7.116;2023-03-31T02:35:42;11.50;99.90
5334;DHT22;2689;50.954;7.116;2023-03-31T02:38:09;11.40;99.90
5334;DHT22;2689;50.954;7.116;2023-03-31T02:40:37;11.40;99.90
5334;DHT22;2689;50.954;7.116;2023-03-31T02:43:04;11.40;99.90
5334;DHT22;2689;50.954;7.116;2023-03-31T02:45:40;11.40;99.90
5334;DHT22;2689;50.954;7.116;2023-03-31T02:48:11;11.40;99.90
5334;DHT22;2689;50.954;7.116;2023-03-31T02:50:57;11.40;99.90
5334;DHT22;2689;50.954;7.116;2023-03-31T02:53:34;11.40;99.90
5334;DHT22;2689;50.954;7.116;2023-03-31T02:56:19;11.40;99.90
5334;DHT22;2689;50.954;7.116;2023-03-31T02:59:11;11.40;99.90
5334;DHT22;2689;50.954;7.116;2023-03-31T03:01:50;11.40;99.90
5334;DHT22;2689;50.954;7.116;2023-03-31T03:04:41;11.50;99.90
5334;DHT22;2689;50.954;7.116;2023-03-31T03:07:20;11.50;99.90
5334;DHT22;2689;50.954;7.116;2023-03-31T03:09:58;11.50;99.90
5334;DHT22;2689;50.954;7.116;2023-03-31T03:12:32;11.50;99.90
5334;DHT22;2689;50.954;7.116;2023-03-31T03:15:05;11.50;99.90
5334;DHT22;2689;50.954;7.116;2023-03-31T03:17:38;11.50;99.90
5334;DHT22;2689;50.954;7.116;2023-03-31T03:20:06;11.40;99.90
5334;DHT22;2689;50.954;7.116;2023-03-31T03:22:35;11.40;99.90
5334;DHT22;2689;50.954;7.116;2023-03-31T03:25:03;11.40;99.90
5334;DHT22;2689;50.954;7.116;2023-03-31T03:27:31;11.40;99.90
5334;DHT22;2689;50.954;7.116;2023-03-31T03:29:58;11.40;99.90
5334;DHT22;2689;50.954;7.116;2023-03-31T03:32:27;11.30;99.90
5334;DHT22;2689;50.954;7.116;2023-03-31T03:34:53;11.30;99.90
5334;DHT22;2689;50.954;7.116;2023-03-31T03:37:20;11.30;99.90
5334;DHT22;2689;50.954;7.116;2023-03-31T03:39:47;11.30;99.90
5334;DHT22;2689;50.954;7.116;2023-03-31T03:42:14;11.30;99.90
5334;DHT22;2689;50.954;7.116;2023-03-31T03:44:42;11.30;99.90
5334;DHT22;2689;50.954;7.116;2023-03-31T03:47:09;11.30;99.90
5334;DHT22;2689;50.954;7.116;2023-03-31T03:49:36;11.20;99.90
5334;DHT22;2689;50.954;7.116;2023-03-31T03:52:03;11.20;99.90
5334;DHT22;2689;50.954;7.116;2023-03-31T03:54:30;11.20;99.90
5334;DHT22;2689;50.954;7.116;2023-03-31T03:56:56;11.20;99.90
5334;DHT22;2689;50.954;7.116;2023-03-31T03:59:23;11.20;99.90
5334;DHT22;2689;50.954;7.116;2023-03-31T04:01:52;11.20;99.90
5334;DHT22;2689;50.954;7.116;2023-03-31T04:04:18;11.30;99.90
5334;DHT22;2689;50.954;7.116;2023-03-31T04:06:45;11.20;99.90
5334;DHT22;2689;50.954;7.116;2023-03-31T04:09:12;11.20;99.90
5334;DHT22;2689;50.954;7.116;2023-03-31T04:11:40;11.30;99.90
5334;DHT22;2689;50.954;7.116;2023-03-31T04:14:06;11.20;99.90
5334;DHT22;2689;50.954;7.116;2023-03-31T04:16:33;11.30;99.90
5334;DHT22;2689;50.954;7.116;2023-03-31T04:19:01;11.20;99.90
5334;DHT22;2689;50.954;7.116;2023-03-31T04:21:29;11.20;99.90
5334;DHT22;2689;50.954;7.116;2023-03-31T04:23:59;11.20;99.90
5334;DHT22;2689;50.954;7.116;2023-03-31T04:26:30;11.20;99.90
5334;DHT22;2689;50.954;7.116;2023-03-31T04:29:03;11.10;99.90
5334;DHT22;2689;50.954;7.116;2023-03-31T04:31:30;11.10;99.90
5334;DHT22;2689;50.954;7.116;2023-03-31T04:33:57;11.10;99.90
5334;DHT22;2689;50.954;7.116;2023-03-31T04:36:28;11.00;99.90
5334;DHT22;2689;50.954;7.116;2023-03-31T04:38:55;11.00;99.90
5334;DHT22;2689;50.954;7.116;2023-03-31T04:41:23;11.00;99.90
5334;DHT22;2689;50.954;7.116;2023-03-31T04:43:52;10.90;99.90
5334;DHT22;2689;50.954;7.116;2023-03-31T04:46:18;10.90;99.90
5334;DHT22;2689;50.954;7.116;2023-03-31T04:48:45;10.90;99.90
5334;DHT22;2689;50.954;7.116;2023-03-31T04:51:12;10.90;99.90
5334;DHT22;2689;50.954;7.116;2023-03-31T04:53:41;10.90;99.90
5334;DHT22;2689;50.954;7.116;2023-03-31T04:56:08;10.80;99.90
5334;DHT22;2689;50.954;7.116;2023-03-31T04:58:35;10.80;99.90
5334;DHT22;2689;50.954;7.116;2023-03-31T05:01:01;10.80;99.90
5334;DHT22;2689;50.954;7.116;2023-03-31T05:03:30;10.80;99.90
5334;DHT22;2689;50.954;7.116;2023-03-31T05:05:57;10.80;99.90
5334;DHT22;2689;50.954;7.116;2023-03-31T05:08:24;10.80;99.90
5334;DHT22;2689;50.954;7.116;2023-03-31T05:10:53;10.80;99.90
5334;DHT22;2689;50.954;7.116;2023-03-31T05:13:20;10.80;99.90
5334;DHT22;2689;50.954;7.116;2023-03-31T05:15:47;10.70;99.90
5334;DHT22;2689;50.954;7.116;2023-03-31T05:18:15;10.70;99.90
5334;DHT22;2689;50.954;7.116;2023-03-31T05:20:42;10.80;99.90
5334;DHT22;2689;50.954;7.116;2023-03-31T05:23:08;10.70;99.90
5334;DHT22;2689;50.954;7.116;2023-03-31T05:25:35;10.80;99.90
5334;DHT22;2689;50.954;7.116;2023-03-31T05:28:04;10.70;99.90
5334;DHT22;2689;50.954;7.116;2023-03-31T05:30:30;10.70;99.90
5334;DHT22;2689;50.954;7.116;2023-03-31T05:32:57;10.70;99.90
5334;DHT22;2689;50.954;7.116;2023-03-31T05:35:24;10.80;99.90
5334;DHT22;2689;50.954;7.116;2023-03-31T05:37:51;10.80;99.90
5334;DHT22;2689;50.954;7.116;2023-03-31T05:40:17;10.80;99.90
5334;DHT22;2689;50.954;7.116;2023-03-31T05:42:44;10.80;99.90
5334;DHT22;2689;50.954;7.116;2023-03-31T05:45:12;10.80;99.90
5334;DHT22;2689;50.954;7.116;2023-03-31T05:47:39;10.90;99.90
5334;DHT22;2689;50.954;7.116;2023-03-31T05:50:06;10.90;99.90
5334;DHT22;2689;50.954;7.116;2023-03-31T05:52:34;10.90;99.90
5334;DHT22;2689;50.954;7.116;2023-03-31T05:55:01;10.90;99.90
5334;DHT22;2689;50.954;7.116;2023-03-31T05:57:27;10.90;99.90
5334;DHT22;2689;50.954;7.116;2023-03-31T05:59:54;10.90;99.90
5334;DHT22;2689;50.954;7.116;2023-03-31T06:02:22;10.90;99.90
5334;DHT22;2689;50.954;7.116;2023-03-31T06:04:49;10.90;99.90
5334;DHT22;2689;50.954;7.116;2023-03-31T06:07:16;10.90;99.90
5334;DHT22;2689;50.954;7.116;2023-03-31T06:09:44;10.90;99.90
5334;DHT22;2689;50.954;7.116;2023-03-31T06:12:11;10.90;99.90
5334;DHT22;2689;50.954;7.116;2023-03-31T06:14:38;11.00;99.90
5334;DHT22;2689;50.954;7.116;2023-03-31T06:17:04;11.00;99.90
5334;DHT22;2689;50.954;7.116;2023-03-31T06:19:33;10.90;99.90
5334;DHT22;2689;50.954;7.116;2023-03-31T06:21:59;10.80;99.90
5334;DHT22;2689;50.954;7.116;2023-03-31T06:24:26;10.70;99.90
5334;DHT22;2689;50.954;7.116;2023-03-31T06:26:53;10.70;99.90
5334;DHT22;2689;50.954;7.116;2023-03-31T06:29:20;10.70;99.90
5334;DHT22;2689;50.954;7.116;2023-03-31T06:31:47;10.80;99.90
5334;DHT22;2689;50.954;7.116;2023-03-31T06:34:13;10.90;99.90
5334;DHT22;2689;50.954;7.116;2023-03-31T06:36:42;10.90;99.90
5334;DHT22;2689;50.954;7.116;2023-03-31T06:39:09;10.90;99.90
5334;DHT22;2689;50.954;7.116;2023-03-31T06:41:35;10.90;99.90
5334;DHT22;2689;50.954;7.116;2023-03-31T06:44:03;10.80;99.90
5334;DHT22;2689;50.954;7.116;2023-03-31T06:46:30;10.60;99.90
5334;DHT22;2689;50.954;7.116;2023-03-31T06:48:57;10.50;99.90
5334;DHT22;2689;50.954;7.116;2023-03-31T06:51:23;10.50;99.90
5334;DHT22;2689;50.954;7.116;2023-03-31T06:53:51;10.40;99.90
5334;DHT22;2689;50.954;7.116;2023-03-31T06:56:18;10.50;99.90
5334;DHT22;2689;50.954;7.116;2023-03-31T06:58:45;10.50;99.90
5334;DHT22;2689;50.954;7.116;2023-03-31T07:01:12;10.60;99.90
5334;DHT22;2689;50.954;7.116;2023-03-31T07:03:38;10.60;99.90
5334;DHT22;2689;50.954;7.116;2023-03-31T07:06:05;10.60;99.90
5334;DHT22;2689;50.954;7.116;2023-03-31T07:08:32;10.70;99.90
5334;DHT22;2689;50.954;7.116;2023-03-31T07:11:00;10.80;99.90
5334;DHT22;2689;50.954;7.116;2023-03-31T07:13:27;11.00;99.90
5334;DHT22;2689;50.954;7.116;2023-03-31T07:15:54;11.10;99.90
5334;DHT22;2689;50.954;7.116;2023-03-31T07:18:22;11.30;99.90
5334;DHT22;2689;50.954;7.116;2023-03-31T07:20:51;11.40;99.90
5334;DHT22;2689;50.954;7.116;2023-03-31T07:23:18;11.40;99.90
5334;DHT22;2689;50.954;7.116;2023-03-31T07:25:46;11.50;99.90
5334;DHT22;2689;50.954;7.116;2023-03-31T07:28:15;11.60;99.90
5334;DHT22;2689;50.954;7.116;2023-03-31T07:30:42;11.70;99.90
5334;DHT22;2689;50.954;7.116;2023-03-31T07:33:09;11.70;99.90
5334;DHT22;2689;50.954;7.116;2023-03-31T07:35:37;11.90;99.90
5334;DHT22;2689;50.954;7.116;2023-03-31T07:38:05;12.00;99.90
5334;DHT22;2689;50.954;7.116;2023-03-31T07:40:33;12.00;99.90
5334;DHT22;2689;50.954;7.116;2023-03-31T07:42:59;12.20;99.90
5334;DHT22;2689;50.954;7.116;2023-03-31T07:45:27;12.30;99.90
5334;DHT22;2689;50.954;7.116;2023-03-31T07:47:54;12.30;99.90
5334;DHT22;2689;50.954;7.116;2023-03-31T07:50:22;12.30;99.90
5334;DHT22;2689;50.954;7.116;2023-03-31T07:52:49;12.50;99.90
5334;DHT22;2689;50.954;7.116;2023-03-31T07:55:16;12.80;99.90
5334;DHT22;2689;50.954;7.116;2023-03-31T07:57:44;13.30;99.90
5334;DHT22;2689;50.954;7.116;2023-03-31T08:00:14;13.90;99.90
5334;DHT22;2689;50.954;7.116;2023-03-31T08:02:42;14.10;99.90
5334;DHT22;2689;50.954;7.116;2023-03-31T08:05:10;14.20;99.90
5334;DHT22;2689;50.954;7.116;2023-03-31T08:07:38;14.20;99.90
5334;DHT22;2689;50.954;7.116;2023-03-31T08:10:14;14.20;99.90
5334;DHT22;2689;50.954;7.116;2023-03-31T08:12:41;14.10;99.90
5334;DHT22;2689;50.954;7.116;2023-03-31T08:15:09;14.00;99.90
5334;DHT22;2689;50.954;7.116;2023-03-31T08:17:36;13.90;99.90
5334;DHT22;2689;50.954;7.116;2023-03-31T08:20:06;13.80;99.90
5334;DHT22;2689;50.954;7.116;2023-03-31T08:22:34;13.70;99.90
5334;DHT22;2689;50.954;7.116;2023-03-31T08:25:01;13.70;99.90
5334;DHT22;2689;50.954;7.116;2023-03-31T08:27:31;13.60;99.90
5334;DHT22;2689;50.954;7.116;2023-03-31T08:29:58;13.80;99.90
5334;DHT22;2689;50.954;7.116;2023-03-31T08:32:27;13.90;99.90
5334;DHT22;2689;50.954;7.116;2023-03-31T08:34:54;14.10;99.90
5334;DHT22;2689;50.954;7.116;2023-03-31T08:37:22;14.20;99.90
5334;DHT22;2689;50.954;7.116;2023-03-31T08:39:49;14.40;99.90
5334;DHT22;2689;50.954;7.116;2023-03-31T08:42:19;14.60;99.90
5334;DHT22;2689;50.954;7.116;2023-03-31T08:44:54;14.90;99.90
5334;DHT22;2689;50.954;7.116;2023-03-31T08:47:25;15.10;99.90
5334;DHT22;2689;50.954;7.116;2023-03-31T08:49:55;15.30;99.90
5334;DHT22;2689;50.954;7.116;2023-03-31T08:52:28;15.30;99.90
5334;DHT22;2689;50.954;7.116;2023-03-31T08:54:57;15.00;99.90
5334;DHT22;2689;50.954;7.116;2023-03-31T08:57:27;14.90;99.90
5334;DHT22;2689;50.954;7.116;2023-03-31T08:59:56;15.00;99.90
5334;DHT22;2689;50.954;7.116;2023-03-31T09:02:37;15.10;99.90
5334;DHT22;2689;50.954;7.116;2023-03-31T09:05:38;15.30;99.90
5334;DHT22;2689;50.954;7.116;2023-03-31T09:08:16;15.80;99.20
5334;DHT22;2689;50.954;7.116;2023-03-31T09:10:51;16.80;97.20
5334;DHT22;2689;50.954;7.116;2023-03-31T09:13:42;17.50;93.70
5334;DHT22;2689;50.954;7.116;2023-03-31T09:16:12;17.90;92.20
5334;DHT22;2689;50.954;7.116;2023-03-31T09:18:41;17.70;92.10
5334;DHT22;2689;50.954;7.116;2023-03-31T09:21:16;17.60;92.30
5334;DHT22;2689;50.954;7.116;2023-03-31T09:23:49;18.00;92.60
5334;DHT22;2689;50.954;7.116;2023-03-31T09:26:23;18.90;90.30
5334;DHT22;2689;50.954;7.116;2023-03-31T09:28:53;19.00;88.70
5334;DHT22;2689;50.954;7.116;2023-03-31T09:31:23;18.60;85.80
5334;DHT22;2689;50.954;7.116;2023-03-31T09:33:52;18.10;88.10
5334;DHT22;2689;50.954;7.116;2023-03-31T09:36:20;17.90;89.80
5334;DHT22;2689;50.954;7.116;2023-03-31T09:38:49;18.00;90.10
5334;DHT22;2689;50.954;7.116;2023-03-31T09:41:17;18.10;90.10
5334;DHT22;2689;50.954;7.116;2023-03-31T09:43:45;17.60;89.60
5334;DHT22;2689;50.954;7.116;2023-03-31T09:46:16;17.10;90.90
5334;DHT22;2689;50.954;7.116;2023-03-31T09:48:51;16.90;91.50
5334;DHT22;2689;50.954;7.116;2023-03-31T09:51:22;17.10;92.20
5334;DHT22;2689;50.954;7.116;2023-03-31T09:53:53;15.60;99.90
5334;DHT22;2689;50.954;7.116;2023-03-31T09:56:34;14.20;99.90
5334;DHT22;2689;50.954;7.116;2023-03-31T09:59:02;13.40;99.90
5334;DHT22;2689;50.954;7.116;2023-03-31T10:01:29;12.80;99.90
5334;DHT22;2689;50.954;7.116;2023-03-31T10:03:56;12.10;99.90
5334;DHT22;2689;50.954;7.116;2023-03-31T10:06:23;11.90;99.90
5334;DHT22;2689;50.954;7.116;2023-03-31T10:08:53;11.90;99.90
5334;DHT22;2689;50.954;7.116;2023-03-31T10:11:22;12.00;99.90
5334;DHT22;2689;50.954;7.116;2023-03-31T10:13:52;12.20;99.90
5334;DHT22;2689;50.954;7.116;2023-03-31T10:16:28;13.30;99.90
5334;DHT22;2689;50.954;7.116;2023-03-31T10:19:11;13.40;99.90
5334;DHT22;2689;50.954;7.116;2023-03-31T10:21:38;13.60;99.90
5334;DHT22;2689;50.954;7.116;2023-03-31T10:24:09;13.50;99.90
5334;DHT22;2689;50.954;7.116;2023-03-31T10:26:36;13.30;99.90
5334;DHT22;2689;50.954;7.116;2023-03-31T10:29:09;13.00;99.90
5334;DHT22;2689;50.954;7.116;2023-03-31T10:31:38;12.90;99.90
5334;DHT22;2689;50.954;7.116;2023-03-31T10:34:07;12.80;99.90
5334;DHT22;2689;50.954;7.116;2023-03-31T10:36:36;12.70;99.90
5334;DHT22;2689;50.954;7.116;2023-03-31T10:39:04;13.10;99.90
5334;DHT22;2689;50.954;7.116;2023-03-31T10:41:33;13.90;99.90
5334;DHT22;2689;50.954;7.116;2023-03-31T10:44:02;13.90;99.90
5334;DHT22;2689;50.954;7.116;2023-03-31T10:46:40;14.20;99.90
5334;DHT22;2689;50.954;7.116;2023-03-31T10:49:14;14.50;99.90
5334;DHT22;2689;50.954;7.116;2023-03-31T10:51:48;15.70;99.90
5334;DHT22;2689;50.954;7.116;2023-03-31T10:54:15;15.80;99.90
5334;DHT22;2689;50.954;7.116;2023-03-31T10:56:45;16.40;98.50
5334;DHT22;2689;50.954;7.116;2023-03-31T10:59:28;16.70;96.00
5334;DHT22;2689;50.954;7.116;2023-03-31T11:02:16;16.80;94.90
5334;DHT22;2689;50.954;7.116;2023-03-31T11:04:58;17.20;94.30
5334;DHT22;2689;50.954;7.116;2023-03-31T11:07:40;17.10;91.40
5334;DHT22;2689;50.954;7.116;2023-03-31T11:10:22;16.70;92.70
5334;DHT22;2689;50.954;7.116;2023-03-31T11:12:55;16.50;91.50
5334;DHT22;2689;50.954;7.116;2023-03-31T11:15:28;16.80;91.50
5334;DHT22;2689;50.954;7.116;2023-03-31T11:18:32;17.00;91.40
5334;DHT22;2689;50.954;7.116;2023-03-31T11:21:06;17.20;91.20
5334;DHT22;2689;50.954;7.116;2023-03-31T11:23:40;17.10;90.90
5334;DHT22;2689;50.954;7.116;2023-03-31T11:26:09;16.80;90.40
5334;DHT22;2689;50.954;7.116;2023-03-31T11:28:49;16.50;91.40
5334;DHT22;2689;50.954;7.116;2023-03-31T11:31:29;16.20;91.60
5334;DHT22;2689;50.954;7.116;2023-03-31T11:34:07;15.90;91.80
5334;DHT22;2689;50.954;7.116;2023-03-31T11:36:57;15.80;92.50
5334;DHT22;2689;50.954;7.116;2023-03-31T11:39:40;15.70;92.80
5334;DHT22;2689;50.954;7.116;2023-03-31T11:42:11;15.70;93.20
5334;DHT22;2689;50.954;7.116;2023-03-31T11:44:45;15.60;93.90
5334;DHT22;2689;50.954;7.116;2023-03-31T11:47:19;15.60;94.70
5334;DHT22;2689;50.954;7.116;2023-03-31T11:49:51;15.60;93.90
5334;DHT22;2689;50.954;7.116;2023-03-31T11:52:26;15.40;94.00
5334;DHT22;2689;50.954;7.116;2023-03-31T11:54:56;15.50;93.50
5334;DHT22;2689;50.954;7.116;2023-03-31T11:57:29;15.40;94.20
5334;DHT22;2689;50.954;7.116;2023-03-31T12:00:02;15.40;94.90
5334;DHT22;2689;50.954;7.116;2023-03-31T12:02:38;15.60;94.30
5334;DHT22;2689;50.954;7.116;2023-03-31T12:05:08;15.50;94.50
5334;DHT22;2689;50.954;7.116;2023-03-31T12:07:41;15.50;94.60
5334;DHT22;2689;50.954;7.116;2023-03-31T12:10:18;15.50;94.20
5334;DHT22;2689;50.954;7.116;2023-03-31T12:12:50;15.50;93.70
5334;DHT22;2689;50.954;7.116;2023-03-31T12:15:22;15.40;94.40
5334;DHT22;2689;50.954;7.116;2023-03-31T12:17:56;15.40;94.60
5334;DHT22;2689;50.954;7.116;2023-03-31T12:20:29;15.40;94.00
5334;DHT22;2689;50.954;7.116;2023-03-31T12:22:58;15.40;94.30
5334;DHT22;2689;50.954;7.116;2023-03-31T12:25:33;15.20;96.50
5334;DHT22;2689;50.954;7.116;2023-03-31T12:28:03;15.20;99.20
5334;DHT22;2689;50.954;7.116;2023-03-31T12:30:33;15.10;98.30
5334;DHT22;2689;50.954;7.116;2023-03-31T12:33:04;15.20;99.90
5334;DHT22;2689;50.954;7.116;2023-03-31T12:35:40;15.50;99.50
5334;DHT22;2689;50.954;7.116;2023-03-31T12:38:19;15.90;97.10
5334;DHT22;2689;50.954;7.116;2023-03-31T12:41:00;16.30;95.90
5334;DHT22;2689;50.954;7.116;2023-03-31T12:46:47;16.50;93.60
5334;DHT22;2689;50.954;7.116;2023-03-31T12:49:25;16.30;93.30
5334;DHT22;2689;50.954;7.116;2023-03-31T12:52:03;16.20;93.60
5334;DHT22;2689;50.954;7.116;2023-03-31T12:57:34;16.10;94.20
5334;DHT22;2689;50.954;7.116;2023-03-31T13:00:22;16.00;94.40
5334;DHT22;2689;50.954;7.116;2023-03-31T13:09:44;15.60;92.90
5334;DHT22;2689;50.954;7.116;2023-03-31T13:12:16;15.50;94.40
5334;DHT22;2689;50.954;7.116;2023-03-31T13:14:44;15.40;95.00
5334;DHT22;2689;50.954;7.116;2023-03-31T13:17:19;15.20;95.80
5334;DHT22;2689;50.954;7.116;2023-03-31T13:19:47;14.80;99.70
5334;DHT22;2689;50.954;7.116;2023-03-31T13:22:28;14.30;99.90
5334;DHT22;2689;50.954;7.116;2023-03-31T13:25:33;13.90;99.90
5334;DHT22;2689;50.954;7.116;2023-03-31T13:28:09;13.70;99.90
5334;DHT22;2689;50.954;7.116;2023-03-31T13:30:50;13.50;99.90
5334;DHT22;2689;50.954;7.116;2023-03-31T13:33:20;13.40;99.90
5334;DHT22;2689;50.954;7.116;2023-03-31T13:35:51;13.30;99.90
5334;DHT22;2689;50.954;7.116;2023-03-31T13:38:28;13.20;99.90
5334;DHT22;2689;50.954;7.116;2023-03-31T13:41:19;13.20;99.90
5334;DHT22;2689;50.954;7.116;2023-03-31T13:44:21;13.20;99.90
5334;DHT22;2689;50.954;7.116;2023-03-31T13:47:16;13.30;99.90
5334;DHT22;2689;50.954;7.116;2023-03-31T13:50:11;13.40;99.90
5334;DHT22;2689;50.954;7.116;2023-03-31T13:52:48;13.50;99.90
5334;DHT22;2689;50.954;7.116;2023-03-31T13:55:56;13.60;99.90
5334;DHT22;2689;50.954;7.116;2023-03-31T14:01:49;13.70;99.90
5334;DHT22;2689;50.954;7.116;2023-03-31T14:04:46;13.80;99.90
5334;DHT22;2689;50.954;7.116;2023-03-31T14:07:21;13.90;99.90
5334;DHT22;2689;50.954;7.116;2023-03-31T14:09:52;14.10;99.90
5334;DHT22;2689;50.954;7.116;2023-03-31T14:12:21;14.30;99.90
5334;DHT22;2689;50.954;7.116;2023-03-31T14:14:53;14.40;99.90
5334;DHT22;2689;50.954;7.116;2023-03-31T14:17:20;14.50;99.90
5334;DHT22;2689;50.954;7.116;2023-03-31T14:20:08;14.70;99.90
5334;DHT22;2689;50.954;7.116;2023-03-31T14:22:46;14.90;99.90
5334;DHT22;2689;50.954;7.116;2023-03-31T14:25:19;15.10;99.90
5334;DHT22;2689;50.954;7.116;2023-03-31T14:27:55;15.30;99.90
5334;DHT22;2689;50.954;7.116;2023-03-31T14:30:32;15.30;99.90
5334;DHT22;2689;50.954;7.116;2023-03-31T14:33:12;15.30;99.90
5334;DHT22;2689;50.954;7.116;2023-03-31T14:35:46;15.50;98.50
5334;DHT22;2689;50.954;7.116;2023-03-31T14:38:19;15.20;98.00
5334;DHT22;2689;50.954;7.116;2023-03-31T14:40:48;15.10;98.00
5334;DHT22;2689;50.954;7.116;2023-03-31T14:43:20;15.10;97.20
5334;DHT22;2689;50.954;7.116;2023-03-31T14:45:56;15.10;96.40
5334;DHT22;2689;50.954;7.116;2023-03-31T14:48:23;15.10;96.30
5334;DHT22;2689;50.954;7.116;2023-03-31T14:50:56;15.10;96.30
5334;DHT22;2689;50.954;7.116;2023-03-31T14:53:24;15.20;95.50
5334;DHT22;2689;50.954;7.116;2023-03-31T14:55:57;15.20;95.40
5334;DHT22;2689;50.954;7.116;2023-03-31T14:58:27;15.20;94.50
5334;DHT22;2689;50.954;7.116;2023-03-31T15:00:57;15.30;94.80
5334;DHT22;2689;50.954;7.116;2023-03-31T15:03:25;15.30;93.90
5334;DHT22;2689;50.954;7.116;2023-03-31T15:05:55;15.40;93.60
5334;DHT22;2689;50.954;7.116;2023-03-31T15:08:23;15.40;93.50
5334;DHT22;2689;50.954;7.116;2023-03-31T15:10:53;15.40;94.60
5334;DHT22;2689;50.954;7.116;2023-03-31T15:13:25;15.40;93.40
5334;DHT22;2689;50.954;7.116;2023-03-31T15:15:53;15.40;93.80
5334;DHT22;2689;50.954;7.116;2023-03-31T15:18:24;15.40;94.80
5334;DHT22;2689;50.954;7.116;2023-03-31T15:20:52;15.40;95.40
5334;DHT22;2689;50.954;7.116;2023-03-31T15:23:21;15.40;95.10
5334;DHT22;2689;50.954;7.116;2023-03-31T15:25:54;15.40;93.40
5334;DHT22;2689;50.954;7.116;2023-03-31T15:28:22;15.20;92.90
5334;DHT22;2689;50.954;7.116;2023-03-31T15:30:51;15.20;93.90
5334;DHT22;2689;50.954;7.116;2023-03-31T15:33:23;15.10;94.10
5334;DHT22;2689;50.954;7.116;2023-03-31T15:35:51;15.20;93.80
5334;DHT22;2689;50.954;7.116;2023-03-31T15:38:18;15.10;93.80
5334;DHT22;2689;50.954;7.116;2023-03-31T15:40:50;15.10;93.30
5334;DHT22;2689;50.954;7.116;2023-03-31T15:43:27;15.10;93.20
5334;DHT22;2689;50.954;7.116;2023-03-31T15:45:55;15.00;93.80
5334;DHT22;2689;50.954;7.116;2023-03-31T15:48:28;15.00;93.90
5334;DHT22;2689;50.954;7.116;2023-03-31T15:51:02;15.00;94.40
5334;DHT22;2689;50.954;7.116;2023-03-31T15:53:35;14.80;95.20
5334;DHT22;2689;50.954;7.116;2023-03-31T15:56:02;14.70;96.10
5334;DHT22;2689;50.954;7.116;2023-03-31T15:58:51;14.60;97.00
5334;DHT22;2689;50.954;7.116;2023-03-31T16:01:18;14.50;96.30
5334;DHT22;2689;50.954;7.116;2023-03-31T16:03:47;14.50;96.60
5334;DHT22;2689;50.954;7.116;2023-03-31T16:06:19;14.50;97.20
5334;DHT22;2689;50.954;7.116;2023-03-31T16:08:51;14.40;98.00
5334;DHT22;2689;50.954;7.116;2023-03-31T16:11:25;14.30;98.50
5334;DHT22;2689;50.954;7.116;2023-03-31T16:13:55;14.30;99.10
5334;DHT22;2689;50.954;7.116;2023-03-31T16:16:24;14.20;98.70
5334;DHT22;2689;50.954;7.116;2023-03-31T16:19:00;14.20;99.00
5334;DHT22;2689;50.954;7.116;2023-03-31T16:21:34;14.20;98.50
5334;DHT22;2689;50.954;7.116;2023-03-31T16:24:02;14.10;98.90
5334;DHT22;2689;50.954;7.116;2023-03-31T16:26:30;14.10;99.90
5334;DHT22;2689;50.954;7.116;2023-03-31T16:28:59;14.00;99.90
5334;DHT22;2689;50.954;7.116;2023-03-31T16:31:29;14.00;99.90
5334;DHT22;2689;50.954;7.116;2023-03-31T16:34:01;13.90;99.90
5334;DHT22;2689;50.954;7.116;2023-03-31T16:36:28;13.80;99.90
5334;DHT22;2689;50.954;7.116;2023-03-31T16:38:56;13.80;99.90
5334;DHT22;2689;50.954;7.116;2023-03-31T16:41:25;13.70;99.90
5334;DHT22;2689;50.954;7.116;2023-03-31T16:43:53;13.60;99.90
5334;DHT22;2689;50.954;7.116;2023-03-31T16:46:21;13.50;99.90
5334;DHT22;2689;50.954;7.116;2023-03-31T16:48:48;13.50;99.90
5334;DHT22;2689;50.954;7.116;2023-03-31T16:51:16;13.50;99.90
5334;DHT22;2689;50.954;7.116;2023-03-31T16:53:44;13.50;99.90
5334;DHT22;2689;50.954;7.116;2023-03-31T16:56:12;13.40;99.90
5334;DHT22;2689;50.954;7.116;2023-03-31T16:58:39;13.50;99.90
5334;DHT22;2689;50.954;7.116;2023-03-31T17:01:07;13.40;99.90
5334;DHT22;2689;50.954;7.116;2023-03-31T17:03:34;13.50;99.90